Veneta, Oregon
Current Conditions -  °F | °C
As of 12:54 PM on Sunday 23 Nov 2014 (Local Time) from KEUG Reporting Station
Broken Clouds Broken Clouds  
Wind Chill: 55°   Ceiling: 20000
Heat Index: 55°   Visibility: 10mi
Dew Point: 44°   Wind: 10mph
Humidity: 67%   Direction: 180°S
Pressure: 30.34"   Gusts: NA
Location:  44.05°N, 123.35°W
Report Text: KEUG 232054Z 18009KT 10SM SCT050 BKN200 13/07 A3034 RMK AO2 SLP274 T01280067 56015
Loading
Personal Weather Stations






























Interactive Weather Map New forecast layout! Learn more

10-Day Weather Forecast

Advertisements
Track Severe Weather on mobile